Briefing drone pour Auxonne

Rechercher une autre localisation

Conditions de vol :


Nous sommes le : Jeudi 06 octobre 2022
Il est 12:59 UTC (14:59 LT)

Lever de soleil : 05:17 UTC (07:17 LT)
Coucher de soleil : 17:35 UTC (19:35 LT)

Météo

L'essentiel des conditions de vol

VIGILANCE MÉTÉO FRANCE - Côte-dOr (21)
Pas de vigilances particulieres
CARTES DES FRONTS
METAR de LFSD
LFSD 061230Z AUTO 03006KT 340V060 9999 OVC032 18/11 Q1031

Date d'émission: 06/10/2022
Heure d'émission: 12:30 UTC
Vent: 030° (variable du 340° au 060°) pour 6 KT (11 km/h)
Visibilité horizontale: > 10 km
Plafond :
- Couvert à 3200ft (975m)
Température: 18 °C
Point de rosée: 11 °C
Humidité: 64%
Pression (QNH): 1031 hPa
TAF de LFSD
LFSD 010600Z 0100/0124 CNL

Conditions prévues :

Heure d'émission : Bulletin éffectué le 01 à 00:00 UTC
Prévision : Valide du 01 a 00:00 UTC au 01 a 23:59 UTC
Nuages : à 0ft (0 m)
WEBCAM POUR AUXONNE

Réglementation

Voler en sécurité

CARTES AERONAUTIQUE 1/500.000
CARTE AZBA (Reseau basse altitude)
CARTES VAC (LFSD)
SUP AIP




Chargement des AIP...
NOTAM (AUXONNE + Terrain à proximité / FIR )




Chargement des NOTAMS...
CONTACT PREFECTURE 21
Côte-dOr (21) : pref-drone@cote-dor.gouv.fr


Avertissement : Les données mises à disposition sont indicatives. Oxygène Drone ne pourra être tenu responsable de dégâts causés aux biens et aux personnes.